Airfield :







YOU CAN JOIN US ON...

 
LOGIN :

Register | Disclaimer

   EN    FR    IT 

 









Legend :    VFR   Marginal VFR   IFR   Intensive IFR   Very Intensive IFR
Visi :
Ceiling :
>= 8 km
>= 3000ft
5 to 8 km
1000 to 3000 ft
1500m to 5 km
500 to 1000 ft
800 to 1500m
200 to 500 ft
< 800m
< 200 ft
Symbols :   Thunderstorms  Fog  Heavy snow  Heavy precipitations  Wind > 20 kt







- Airport Elevation : 792 ft
- IATA code : YSC


CYSC - Sherbrooke

CURRENT METAR :
  • 200000Z AUTO 02004KT 330V030 9SM FEW250 19/18 A2974 RMK SLP072 DENSITY ALT 1600FT

EXPIRED METARs :
  • 192300Z AUTO 07005KT 060V150 9SM SCT043 SCT060 BKN080 BKN093 20/18 A2973 RMK SLP070 DENSITY ALT 1800FT
  • 192245Z AUTO 07005KT 010V110 9SM BKN043 OVC060 20/18 A2974 RMK SLP073 DENSITY ALT 1700FT
  • 192230Z AUTO 06005KT 010V080 9SM VCTS FEW030 OVC045 20/18 A2974 RMK LTNG DIST E SLP074 DENSITY ALT 1700FT
  • 192200Z AUTO 14005KT 120V180 9SM -TSRA FEW028 SCT050 BKN065 BKN093 23/18 A2972 RMK SLP068 DENSITY ALT 2100FT
  • 192157Z AUTO 14005KT 130V200 9SM TSRA FEW032 SCT048 BKN080 BKN110 23/17 A2973 RMK SLP069 DENSITY ALT 2100FT

TAF TAF CYSC
Valid from the 20 at 00:00 until the 20 at 03:00 UTC


192339Z 2000/2003 07005KT P6SM BKN080 BKN240
TEMPO 2000/2003 P6SM -SHRA BKN040 RMK FCST BASED ON AUTO OBS. NXT FCST WILL BE ISSUED AT 201045Z
CZUL FIR / North America



MET'MAP, your aeronautical weather chart ! - Copyright ORBIFLY December 2007 - Disclaimer

ORBIFLY MET'MAP TEAM :

Programming & Development : Alexandra Zaïnal
Concept & Development : Baudouin d'Aumeries
Co-Development & Prog : Marc-Olivier Méhu
Technical & hardware support : Manuel Goepfert

Contact : metmap@orbifly.com




SOURCES & CREDITS :

   NOAA